Historique des mesures à Cassis (13260), France
Quotidien Résumé Juin 16, 2017 Unités:  US    Métrique   Métrique/US
« Précédent (Jour)
Suivant (Jour) »
Quotidien Hebdomadaire Mensuel Annuel Période au choix
  Maximum: Minimum: Moyenne:
Température: 32 °F 77.5 °F 83.3 °F
Point de rosée: 32 °F 48.9 °F 59.7 °F
Humidité: Humidity % 25 % 44 %
Vitesse du vent: WindSpeedKMH mph 0.0 mph 11 mph
Rafales: WindSpeedGustKMH mph - -
Vent:- - SSW
Pression: 0 in 29.8 in -
Précipitations: 0 in    
Historical Graphs
 
 
Mesures pour : Juin 16, 2017
Heure Temperature Point de rosée Pression Vent Vitesse du vent Rafales Humidité Pluie (par heure) Conditions
32 °F 32 °F 0 in Calm     Humidity % 0 in SoftwareType W/m2
00:10 80.1 °F 68.2 °F 29.9 in NW 5.0 mph 5.0 mph 67 % 0 in open2300-1.11 W/m2
01:11 78.4 °F 67.8 °F 29.9 in Calm     70 % 0 in open2300-1.11 W/m2
02:10 77.5 °F 67.8 °F 29.9 in Calm     72 % 0 in open2300-1.11 W/m2
03:10 81.9 °F 65.1 °F 29.9 in NNE 2.6 mph 4.3 mph 57 % 0 in open2300-1.11 W/m2
04:10 78.4 °F 66.9 °F 29.9 in Calm     68 % 0 in open2300-1.11 W/m2
05:10 80.1 °F 64.9 °F 29.9 in Calm     60 % 0 in open2300-1.11 W/m2
06:10 79.5 °F 64.6 °F 29.9 in NW 4.7 mph 4.7 mph 60 % 0 in open2300-1.11 W/m2
07:10 79.9 °F 64.2 °F 29.9 in NW 5.5 mph 8.7 mph 59 % 0 in open2300-1.11 W/m2
08:11 82.9 °F 64.6 °F 29.9 in NNW 6.8 mph 12.2 mph 54 % 0 in open2300-1.11 W/m2
09:10 84 °F 65.1 °F 29.9 in NW 24.1 mph 24.1 mph 53 % 0 in open2300-1.11 W/m2
10:10 87.3 °F 65.8 °F 29.9 in NW 11.1 mph 11.1 mph 49 % 0 in open2300-1.11 W/m2
11:10 89.2 °F 65.7 °F 29.9 in NNE 4.0 mph 10.1 mph 46 % 0 in open2300-1.11 W/m2
12:10 91 °F 62.6 °F 29.9 in WNW 10.8 mph 11.9 mph 39 % 0 in open2300-1.11 W/m2
13:10 91.2 °F 60.3 °F 29.9 in North 13.7 mph 18.7 mph 36 % 0 in open2300-1.11 W/m2
14:10 92.5 °F 60.6 °F 29.9 in NNW 11.9 mph 24.8 mph 35 % 0 in open2300-1.11 W/m2
15:11 92.8 °F 61 °F 29.8 in NW 20.9 mph 28.2 mph 35 % 0 in open2300-1.11 W/m2
16:10 93.2 °F 58.8 °F 29.8 in WNW 33.5 mph 33.5 mph 32 % 0 in open2300-1.11 W/m2
17:11 92.3 °F 56.5 °F 29.8 in NNE 12.6 mph 13.4 mph 30 % 0 in open2300-1.11 W/m2
18:10 91.2 °F 50.2 °F 29.8 in WNW 30.6 mph 42.2 mph 25 % 0 in open2300-1.11 W/m2
19:10 89.8 °F 48.9 °F 29.8 in NNW 16.6 mph 33.8 mph 25 % 0 in open2300-1.11 W/m2
20:10 88 °F 50.5 °F 29.8 in NNW 18.7 mph 21.2 mph 28 % 0 in open2300-1.11 W/m2
21:10 85.3 °F 52 °F 29.8 in North 10.8 mph 32.0 mph 32 % 0 in open2300-1.11 W/m2
22:10 83.3 °F 54.1 °F 29.8 in North 29.1 mph 34.6 mph 37 % 0 in open2300-1.11 W/m2
23:10 82.2 °F 54.9 °F 29.8 in NE 1.8 mph 4.0 mph 39 % 0 in open2300-1.11 W/m2
Observations météo à CASSIS
WU-History script by Weather Underground - 1 mb